• Join FlightAware (Why Join?)
  • Login
  • US Flag 
08:58PM EDT


 

Airport Tracker/Info


-or-


 

Live Flight TrackerFlight Track Log ✈ SYN564 ✈ 02-Jul-2013 ✈ CYYC - CYEG

Flight Track Log - Related Links

Times and Time Zones

All times are in EDT time to prevent confusion due to time zone crossing. See the SYN564 flight status page for this flight to view local times or setup timezone preferences in your user account.

Time Position Orientation Groundspeed Altitude Reporting Facility
EDT Latitude Longitude Course Direction KTS MPH feet Rate Location/Type
07:58PM 51.0667 -114.0500 North 140 161 3,900  Level Edmonton Center
07:59PM 51.0167 -114.0500 180° South 210 242 6,000 2,100 Climbing Edmonton Center
08:00PM 50.9667 -114.0833 203° Southwest 220 253 8,200 2,220 Climbing Edmonton Center
08:01PM 51.0167 -114.1500 320° Northwest 270 311 10,500 2,700 Climbing Edmonton Center
08:02PM 51.0833 -114.1667 351° North 270 311 13,600 2,820 Climbing Edmonton Center
08:03PM 51.1667 -114.1833 353° North 290 334 16,200 2,400 Climbing Edmonton Center
08:04PM 51.6105 -113.9244 North  Level Estimated
08:04PM 51.2500 -114.2000 353° North 290 334 18,400  Level Edmonton Center
08:05PM 51.3500 -114.2000 360° North 340 391 19,900 1,260 Climbing Edmonton Center
08:06PM 51.4500 -114.2000 360° North 360 414 21,000 540 Climbing Edmonton Center
08:07PM 51.5667 -114.1833 North 390 449 21,000  Level Edmonton Center
08:08PM 51.6667 -114.1833 360° North 380 437 21,000  Level Edmonton Center
08:09PM 51.7667 -114.1833 360° North 380 437 21,000  Level Edmonton Center
08:10PM 51.8833 -114.2000 355° North 390 449 21,000  Level Edmonton Center
08:11PM 51.9833 -114.2000 360° North 400 460 21,000  Level Edmonton Center
08:12PM 52.1167 -114.2000 360° North 400 460 21,000 -60 Level Edmonton Center
08:13PM 52.2167 -114.2000 360° North 400 460 20,900 -660 Descending Edmonton Center
08:14PM 52.3333 -114.1833 North 400 460 19,700 -960 Descending Edmonton Center
08:15PM 52.4333 -114.1833 360° North 390 449 19,000 -900 Descending Edmonton Center
08:16PM 52.5500 -114.1500 10° North 380 437 18,000 -900 Descending Edmonton Center
08:17PM 52.6500 -114.1167 11° North 390 449 17,200 -540 Descending Edmonton Center
08:18PM 52.7500 -114.0833 11° North 380 437 17,000 -900 Descending Edmonton Center
08:19PM 52.8500 -114.0333 17° North 380 437 15,500 -1,680 Descending Edmonton Center
08:20PM 52.9667 -114.0000 10° North 370 426 13,700 -1,980 Descending Edmonton Center
08:21PM 53.0667 -113.9667 11° North 350 403 11,600 -2,100 Descending Edmonton Center
08:22PM 53.1500 -113.9500 North 340 391 9,500 -1,800 Descending Edmonton Center
08:23PM 53.2333 -113.9333 North 290 334 8,000 -1,560 Descending Edmonton Center
08:24PM 53.3167 -113.9333 360° North 280 322 6,400 -1,500 Descending Edmonton Center
08:25PM 53.3833 -113.8500 37° Northeast 250 288 5,100 -1,080 Descending Edmonton Center
08:26PM 53.3833 -113.8000 90° East 210 242 4,300 -600 Descending Edmonton Center
08:27PM 53.3500 -113.7333 130° Southeast 170 196 4,000 -600 Descending Edmonton Center
08:28PM 53.3000 -113.6667 141° Southeast 170 196 3,200 -720 Descending Edmonton Center
08:29PM 53.3000 -113.6333 90° East 120 138 2,600 -360 Descending Edmonton Center
08:30PM 53.2667 -113.6000 149° Southeast 110 127 2,500 -120 Descending Edmonton Center